Time;durP1;ratioP1;P1;durP2;ratioP2;P2;SDS_P1;SDS_P2;PMS_P1;PMS_P2;Temp;Humidity;BMP_temperature;BMP_pressure;BME280_temperature;BME280_humidity;BME280_pressure;Samples;Min_cycle;Max_cycle;Signal;HPM_P1;HPM_P2
2021/04/11 00:00:33;;;;;;;3.67;2.78;;;9.70;49.90;;;;;;5029873;28;20199;-90
2021/04/11 00:03:00;;;;;;;3.10;2.72;;;9.70;50.50;;;;;;5019790;28;20226;-92
2021/04/11 00:05:30;;;;;;;3.42;2.60;;;9.70;50.50;;;;;;5017670;28;20718;-90
2021/04/11 00:07:56;;;;;;;4.72;2.53;;;9.70;49.50;;;;;;5022934;28;20249;-91
2021/04/11 00:10:26;;;;;;;3.28;2.35;;;9.80;49.20;;;;;;5023812;28;20207;-90
2021/04/11 00:12:53;;;;;;;4.38;2.72;;;9.80;49.20;;;;;;5010017;28;20239;-91
2021/04/11 00:15:20;;;;;;;3.85;2.85;;;9.80;49.60;;;;;;5011890;28;20195;-89
2021/04/11 00:17:47;;;;;;;5.53;2.63;;;9.90;49.10;;;;;;5013089;28;20235;-89
2021/04/11 00:20:15;;;;;;;4.00;2.70;;;9.80;49.80;;;;;;5024174;28;20197;-90
2021/04/11 00:22:41;;;;;;;5.05;2.40;;;9.70;50.40;;;;;;5018483;28;20227;-90
2021/04/11 00:25:09;;;;;;;3.60;2.60;;;9.70;49.40;;;;;;5008065;28;20191;-90
2021/04/11 00:27:37;;;;;;;5.22;2.75;;;9.70;50.60;;;;;;5031100;28;20709;-90
2021/04/11 00:30:04;;;;;;;4.27;2.47;;;9.80;50.70;;;;;;5020568;28;20198;-89
2021/04/11 00:32:30;;;;;;;8.70;2.78;;;9.80;49.20;;;;;;5005533;28;20766;-92
2021/04/11 00:34:57;;;;;;;5.50;2.63;;;9.80;49.10;;;;;;5011809;28;20191;-87
2021/04/11 00:37:23;;;;;;;4.25;2.60;;;9.90;49.30;;;;;;5018860;28;20221;-87
2021/04/11 00:39:53;;;;;;;3.57;2.83;;;9.60;48.00;;;;;;5022941;28;20231;-87
2021/04/11 00:42:24;;;;;;;4.70;2.75;;;9.50;52.30;;;;;;5008213;28;20204;-87
2021/04/11 00:44:54;;;;;;;4.57;2.60;;;9.30;53.10;;;;;;5042432;28;20191;-88
2021/04/11 00:47:20;;;;;;;5.72;2.70;;;9.20;51.30;;;;;;5027772;28;20231;-87
2021/04/11 00:49:48;;;;;;;4.60;2.77;;;9.30;51.40;;;;;;5026322;28;20202;-88
2021/04/11 00:52:17;;;;;;;2.83;2.50;;;9.30;51.90;;;;;;5024088;28;20215;-87
2021/04/11 00:54:44;;;;;;;4.10;2.60;;;9.30;52.20;;;;;;5022216;28;20277;-88
2021/04/11 00:57:13;;;;;;;3.70;2.60;;;9.40;52.20;;;;;;5027332;28;20211;-87
2021/04/11 00:59:39;;;;;;;3.20;2.70;;;9.40;53.60;;;;;;5023567;28;20227;-90
2021/04/11 01:02:07;;;;;;;3.35;2.53;;;9.50;52.40;;;;;;5014336;28;20682;-88
2021/04/11 01:04:33;;;;;;;4.17;2.63;;;9.30;51.50;;;;;;5024845;28;20226;-87
2021/04/11 01:07:09;;;;;;;4.13;2.70;;;9.30;52.90;;;;;;5034099;28;20267;-87
2021/04/11 01:09:39;;;;;;;3.33;2.60;;;9.20;52.70;;;;;;5025463;28;20249;-88
2021/04/11 01:12:10;;;;;;;4.50;2.75;;;9.10;53.10;;;;;;5025937;28;20271;-87
2021/04/11 01:14:37;;;;;;;4.78;2.40;;;9.20;54.70;;;;;;5016680;28;20228;-87
2021/04/11 01:17:05;;;;;;;6.23;3.03;;;9.20;53.90;;;;;;5015130;28;20207;-90
2021/04/11 01:19:35;;;;;;;4.47;2.63;;;9.20;53.80;;;;;;5018005;28;20579;-90
2021/04/11 01:22:13;;;;;;;4.60;2.60;;;9.10;53.70;;;;;;5015207;28;20207;-90
2021/04/11 01:24:42;;;;;;;3.88;2.65;;;8.90;54.20;;;;;;5017750;28;20235;-90
2021/04/11 01:27:12;;;;;;;4.13;2.85;;;8.80;55.30;;;;;;5007986;28;20655;-91
2021/04/11 01:29:41;;;;;;;5.63;2.83;;;8.70;55.20;;;;;;5012367;28;20231;-90
2021/04/11 01:32:09;;;;;;;3.97;2.77;;;8.70;54.60;;;;;;5016139;28;20250;-87
2021/04/11 01:34:36;;;;;;;3.90;2.70;;;8.70;54.80;;;;;;5023519;28;20378;-90
2021/04/11 01:37:04;;;;;;;4.90;2.60;;;8.90;54.90;;;;;;5016886;28;20214;-89
2021/04/11 01:39:35;;;;;;;3.27;2.60;;;8.90;54.10;;;;;;5022750;28;20599;-89
2021/04/11 01:42:04;;;;;;;3.47;2.45;;;8.90;54.50;;;;;;5008859;28;20290;-90
2021/04/11 01:44:33;;;;;;;4.93;3.05;;;9.00;54.10;;;;;;5019155;28;20257;-90
2021/04/11 01:47:00;;;;;;;6.63;2.60;;;9.10;54.20;;;;;;5016631;28;20215;-89
2021/04/11 01:49:27;;;;;;;2.80;2.47;;;9.20;54.20;;;;;;5018461;28;20231;-89
2021/04/11 01:51:58;;;;;;;3.17;2.80;;;9.30;53.40;;;;;;5018438;28;20765;-91
2021/04/11 01:54:26;;;;;;;4.75;3.03;;;9.50;54.40;;;;;;5024504;28;20229;-91
2021/04/11 01:56:53;;;;;;;3.58;2.63;;;9.50;54.70;;;;;;5018107;28;20290;-91
2021/04/11 01:59:24;;;;;;;3.07;2.63;;;9.40;55.90;;;;;;5017286;28;20354;-90
2021/04/11 02:01:51;;;;;;;6.23;3.00;;;9.40;54.30;;;;;;5012335;28;20207;-90
2021/04/11 02:04:18;;;;;;;4.07;2.80;;;9.20;54.20;;;;;;5024239;28;20667;-89
2021/04/11 02:06:47;;;;;;;4.10;2.53;;;9.00;56.10;;;;;;5036283;28;20205;-89
2021/04/11 02:09:16;;;;;;;4.30;2.92;;;9.00;55.80;;;;;;5023960;28;20218;-90
2021/04/11 02:11:43;;;;;;;3.97;2.87;;;9.00;55.70;;;;;;5023611;28;20241;-90
2021/04/11 02:14:10;;;;;;;4.50;3.08;;;9.10;55.90;;;;;;5026207;28;20278;-89
2021/04/11 02:16:38;;;;;;;3.30;2.43;;;9.30;55.50;;;;;;5023794;28;20678;-91
2021/04/11 02:19:06;;;;;;;3.27;2.80;;;9.30;54.80;;;;;;5023451;28;20219;-87
2021/04/11 02:21:34;;;;;;;5.57;2.70;;;9.40;54.50;;;;;;5026287;28;20627;-87
2021/04/11 02:24:03;;;;;;;3.60;2.77;;;9.40;53.90;;;;;;5031444;28;20556;-89
2021/04/11 02:26:30;;;;;;;7.67;3.20;;;9.40;53.50;;;;;;5024786;28;20200;-89
2021/04/11 02:28:56;;;;;;;3.72;2.78;;;9.20;55.10;;;;;;5000882;28;20243;-89
2021/04/11 02:31:24;;;;;;;2.80;2.50;;;9.10;56.20;;;;;;5000187;28;20602;-89
2021/04/11 02:34:02;;;;;;;3.83;2.80;;;9.10;56.50;;;;;;5006167;28;20333;-89
2021/04/11 02:36:38;;;;;;;5.38;2.80;;;9.30;55.00;;;;;;5019687;28;20662;-89
2021/04/11 02:39:09;;;;;;;4.40;2.95;;;9.30;55.30;;;;;;5027959;28;20234;-90
2021/04/11 02:41:38;;;;;;;4.18;3.15;;;9.30;54.30;;;;;;5018961;28;20188;-91
2021/04/11 02:44:05;;;;;;;6.03;3.53;;;9.50;54.00;;;;;;5012772;28;20239;-89
2021/04/11 02:46:33;;;;;;;5.07;3.00;;;9.40;54.80;;;;;;5021578;28;20198;-89
2021/04/11 02:49:00;;;;;;;5.30;3.20;;;9.40;55.80;;;;;;5021224;28;20242;-89
2021/04/11 02:51:30;;;;;;;5.57;2.80;;;9.40;56.00;;;;;;5014752;28;20206;-89
2021/04/11 02:53:59;;;;;;;3.17;2.88;;;9.50;55.50;;;;;;5017706;28;20234;-89
2021/04/11 02:56:26;;;;;;;5.25;2.78;;;9.50;55.90;;;;;;5028185;28;20198;-90
2021/04/11 02:58:53;;;;;;;4.23;2.60;;;9.50;55.30;;;;;;5022557;28;20223;-91
2021/04/11 03:01:24;;;;;;;4.25;2.70;;;9.50;56.20;;;;;;5019972;28;20199;-91
2021/04/11 03:03:50;;;;;;;5.30;2.53;;;9.50;55.50;;;;;;5027302;28;20222;-89
2021/04/11 03:06:21;;;;;;;3.70;2.60;;;9.50;59.50;;;;;;5022732;28;20209;-88
2021/04/11 03:08:50;;;;;;;5.45;2.90;;;9.50;57.30;;;;;;5023322;28;20257;-89
2021/04/11 03:11:24;;;;;;;4.13;2.93;;;9.30;57.00;;;;;;5026215;28;20199;-88
2021/04/11 03:13:51;;;;;;;4.57;2.90;;;9.20;57.60;;;;;;5020881;28;20628;-89
2021/04/11 03:16:18;;;;;;;3.13;2.77;;;9.10;58.10;;;;;;5022211;28;20573;-88
2021/04/11 03:19:15;;;;;;;3.50;2.83;;;9.20;58.00;;;;;;5041056;28;20515;-89
2021/04/11 03:21:42;;;;;;;4.23;2.73;;;9.30;58.60;;;;;;5034177;28;20191;-88
2021/04/11 03:24:10;;;;;;;4.20;2.73;;;9.30;57.60;;;;;;5019160;28;20238;-89
2021/04/11 03:26:42;;;;;;;3.17;2.55;;;9.30;58.60;;;;;;5034603;28;20232;-89
2021/04/11 03:29:58;;;;;;;3.10;2.63;;;9.30;57.90;;;;;;5039326;28;20811;-88
2021/04/11 03:32:29;;;;;;;3.63;2.80;;;9.30;59.20;;;;;;5026978;28;20644;-88
2021/04/11 03:34:58;;;;;;;2.83;2.53;;;9.40;58.30;;;;;;5020355;28;20255;-89
2021/04/11 03:37:29;;;;;;;3.33;3.03;;;9.30;59.10;;;;;;5019114;28;20211;-88
2021/04/11 03:39:56;;;;;;;5.23;2.77;;;9.30;59.20;;;;;;5018916;28;20220;-88
2021/04/11 03:42:27;;;;;;;4.50;2.77;;;9.30;58.40;;;;;;5020265;28;20194;-88
2021/04/11 03:44:54;;;;;;;3.00;2.70;;;9.30;57.80;;;;;;5020103;28;20590;-88
2021/04/11 03:47:25;;;;;;;5.73;3.17;;;9.30;59.50;;;;;;5018306;28;20210;-89
2021/04/11 03:50:02;;;;;;;3.50;2.77;;;9.20;58.60;;;;;;5019498;28;20290;-88
2021/04/11 03:52:32;;;;;;;5.27;3.47;;;9.10;58.10;;;;;;5021712;28;20242;-86
2021/04/11 03:55:04;;;;;;;3.03;2.80;;;9.10;59.10;;;;;;5025697;28;20266;-86
2021/04/11 03:57:37;;;;;;;5.43;2.90;;;9.10;59.40;;;;;;5024895;28;20195;-86
2021/04/11 04:00:07;;;;;;;4.57;2.80;;;9.00;60.10;;;;;;5025263;28;20226;-86
2021/04/11 04:02:55;;;;;;;3.70;2.67;;;8.80;60.00;;;;;;5005693;28;20282;-86
2021/04/11 04:08:44;;;;;;;3.80;2.70;;;8.80;61.00;;;;;;5002249;28;20266;-86
2021/04/11 04:11:25;;;;;;;5.47;2.83;;;8.80;61.30;;;;;;4998617;28;20246;-86
2021/04/11 04:14:08;;;;;;;5.00;3.00;;;8.80;59.50;;;;;;5021351;28;20249;-87
2021/04/11 04:16:51;;;;;;;3.67;2.80;;;8.70;59.30;;;;;;5016576;28;20568;-86
2021/04/11 04:19:33;;;;;;;3.27;2.80;;;8.70;59.70;;;;;;5015625;28;20238;-86
2021/04/11 04:22:29;;;;;;;4.10;2.73;;;8.70;60.50;;;;;;5016160;28;20203;-86
2021/04/11 04:25:08;;;;;;;3.33;2.50;;;8.60;59.70;;;;;;5022996;28;20227;-86
2021/04/11 04:27:43;;;;;;;5.73;3.30;;;8.40;61.30;;;;;;5023958;28;20191;-86
2021/04/11 04:30:15;;;;;;;4.50;3.03;;;8.30;61.50;;;;;;5024303;28;20258;-85
2021/04/11 04:33:08;;;;;;;3.97;2.77;;;8.30;65.40;;;;;;5021375;28;20601;-86
2021/04/11 04:35:40;;;;;;;4.83;3.10;;;8.40;64.60;;;;;;5005669;28;20275;-86
2021/04/11 04:38:16;;;;;;;4.20;2.67;;;8.40;63.50;;;;;;5020398;28;20235;-87
2021/04/11 04:40:56;;;;;;;3.77;2.70;;;8.40;64.00;;;;;;5020317;28;20198;-86
2021/04/11 04:43:30;;;;;;;3.97;2.80;;;8.40;65.10;;;;;;5003457;28;20234;-88
2021/04/11 04:46:11;;;;;;;3.73;3.33;;;8.40;64.90;;;;;;5019603;28;20188;-89
2021/04/11 04:48:40;;;;;;;4.03;2.63;;;8.50;67.30;;;;;;4987863;28;20225;-89
2021/04/11 04:51:16;;;;;;;6.97;3.40;;;8.50;65.50;;;;;;5042744;28;20209;-89
2021/04/11 04:53:48;;;;;;;5.23;2.97;;;8.50;66.10;;;;;;5030059;28;20230;-88
2021/04/11 04:56:21;;;;;;;5.70;3.10;;;8.50;64.70;;;;;;5043175;28;20245;-88
2021/04/11 04:58:55;;;;;;;3.63;3.10;;;8.50;66.90;;;;;;5042565;28;20234;-88
2021/04/11 05:01:24;;;;;;;3.50;2.70;;;8.60;65.50;;;;;;5026651;28;20256;-88
2021/04/11 05:03:57;;;;;;;4.80;3.00;;;8.70;65.70;;;;;;5029648;28;20234;-88
2021/04/11 05:06:30;;;;;;;4.67;3.20;;;8.80;64.90;;;;;;5043339;28;20194;-89
2021/04/11 05:09:05;;;;;;;5.50;3.00;;;8.80;65.50;;;;;;5042432;28;20287;-88
2021/04/11 05:14:38;;;;;;;4.73;3.37;;;9.00;66.60;;;;;;5044362;28;20233;-86
2021/04/11 05:17:08;;;;;;;6.53;3.30;;;9.00;64.60;;;;;;5047774;28;20258;-86
2021/04/11 05:23:14;;;;;;;6.47;3.73;;;9.20;64.40;;;;;;5047059;28;20230;-86
2021/04/11 05:25:44;;;;;;;6.77;4.40;;;9.30;63.30;;;;;;5047112;28;20653;-85
2021/04/11 05:28:16;;;;;;;7.83;5.40;;;9.40;65.50;;;;;;5029220;28;20226;-87
2021/04/11 05:30:45;;;;;;;7.40;4.30;;;9.50;61.80;;;;;;5047269;28;20202;-86
2021/04/11 05:33:16;;;;;;;6.63;4.35;;;9.70;63.20;;;;;;5047144;28;20230;-86
2021/04/11 05:35:43;;;;;;;5.07;3.53;;;9.80;63.60;;;;;;5048155;28;20202;-86
2021/04/11 05:38:29;;;;;;;7.90;4.03;;;9.90;63.20;;;;;;5015671;28;20701;-86
2021/04/11 05:41:02;;;;;;;6.82;3.60;;;10.00;61.90;;;;;;5029140;28;20261;-86
2021/04/11 05:43:35;;;;;;;4.95;3.35;;;10.10;62.40;;;;;;5047025;28;20237;-86
2021/04/11 05:46:09;;;;;;;4.05;3.20;;;10.20;60.10;;;;;;5011380;28;20199;-86
2021/04/11 05:48:41;;;;;;;6.68;3.50;;;10.40;58.50;;;;;;5033640;28;20221;-86
2021/04/11 05:51:14;;;;;;;4.70;3.63;;;10.60;58.60;;;;;;5047501;28;20568;-86
2021/04/11 05:53:45;;;;;;;18.45;6.03;;;10.70;59.30;;;;;;5047050;28;20721;-86
2021/04/11 05:56:17;;;;;;;4.45;3.55;;;10.80;60.90;;;;;;5031038;28;20198;-86
2021/04/11 05:58:57;;;;;;;17.42;5.43;;;11.00;56.60;;;;;;5050563;28;20235;-86
2021/04/11 06:01:27;;;;;;;17.48;6.03;;;11.20;55.90;;;;;;5047706;28;20676;-86
2021/04/11 06:06:53;;;;;;;8.18;4.03;;;11.50;58.60;;;;;;5048664;28;20198;-86
2021/04/11 06:09:29;;;;;;;4.32;3.45;;;11.80;58.00;;;;;;5046933;28;20260;-86
2021/04/11 06:12:02;;;;;;;5.03;3.70;;;12.30;55.70;;;;;;5026796;28;20191;-87
2021/04/11 06:24:45;;;;;;;6.60;2.67;;;13.70;38.80;;;;;;4957462;28;20234;-86
2021/04/11 06:27:26;;;;;;;4.95;2.63;;;14.30;38.60;;;;;;5020019;28;20198;-89
2021/04/11 06:30:01;;;;;;;8.25;2.88;;;14.60;37.10;;;;;;5016562;28;20276;-89
2021/04/11 06:32:34;;;;;;;11.63;3.05;;;15.10;36.60;;;;;;5032436;28;20567;-89
2021/04/11 06:35:03;;;;;;;3.55;2.70;;;15.30;34.80;;;;;;5036191;28;20634;-89
2021/04/11 06:37:31;;;;;;;5.78;2.78;;;15.50;34.80;;;;;;5023662;28;20207;-89
2021/04/11 06:40:02;;;;;;;4.38;2.45;;;15.50;36.40;;;;;;5017154;28;20297;-88
2021/04/11 06:42:55;;;;;;;3.92;2.60;;;15.80;34.70;;;;;;5021401;28;20205;-89
2021/04/11 06:45:29;;;;;;;4.22;2.42;;;15.90;34.50;;;;;;5020636;28;20202;-89
2021/04/11 06:48:36;;;;;;;4.05;2.75;;;15.90;33.10;;;;;;5016654;28;20227;-88
2021/04/11 06:51:38;;;;;;;3.45;2.70;;;15.90;35.30;;;;;;5028353;28;20206;-87
2021/04/11 06:54:53;;;;;;;4.10;2.58;;;15.80;34.50;;;;;;5016406;28;20240;-88
2021/04/11 06:57:29;;;;;;;4.95;2.30;;;15.50;32.80;;;;;;5030018;28;20205;-89
2021/04/11 07:00:10;;;;;;;4.50;2.42;;;15.40;34.30;;;;;;5024066;28;20520;-88
2021/04/11 07:03:13;;;;;;;3.63;2.50;;;15.30;35.20;;;;;;5026756;28;20245;-88
2021/04/11 07:06:11;;;;;;;3.38;2.47;;;15.30;34.80;;;;;;5010305;28;20210;-90
2021/04/11 07:09:08;;;;;;;5.43;2.60;;;15.40;36.60;;;;;;5022218;28;20223;-89
2021/04/11 07:12:13;;;;;;;3.17;2.25;;;15.30;34.70;;;;;;5039102;28;20241;-87
2021/04/11 07:15:23;;;;;;;3.90;2.03;;;15.60;34.10;;;;;;5024930;28;20222;-88
2021/04/11 07:18:41;;;;;;;3.45;2.08;;;16.00;33.30;;;;;;5026000;28;20301;-88
2021/04/11 07:21:46;;;;;;;5.70;2.35;;;15.80;32.70;;;;;;5027498;28;20285;-88
2021/04/11 07:24:34;;;;;;;5.25;2.67;;;15.90;34.80;;;;;;5022861;28;20616;-89
2021/04/11 07:27:09;;;;;;;5.38;2.92;;;15.90;34.90;;;;;;5023798;28;20309;-89
2021/04/11 07:29:53;;;;;;;3.72;2.10;;;16.10;33.70;;;;;;5016754;28;20686;-87
2021/04/11 07:32:33;;;;;;;4.13;2.28;;;16.10;33.30;;;;;;5016982;28;20222;-88
2021/04/11 07:35:22;;;;;;;3.67;2.08;;;16.10;35.00;;;;;;5018264;28;20202;-87
2021/04/11 07:38:09;;;;;;;2.38;2.15;;;16.40;36.10;;;;;;5024401;28;20227;-87
2021/04/11 07:40:53;;;;;;;5.10;3.05;;;16.90;33.80;;;;;;5029647;28;20203;-87
2021/04/11 07:43:32;;;;;;;2.58;1.90;;;17.30;33.40;;;;;;5024058;28;20233;-91
2021/04/11 07:46:36;;;;;;;3.33;2.05;;;17.40;33.50;;;;;;5034992;28;20201;-89
2021/04/11 07:49:28;;;;;;;3.17;2.33;;;17.40;30.90;;;;;;5023994;28;20237;-91
2021/04/11 07:52:02;;;;;;;3.53;2.20;;;17.70;30.10;;;;;;5027605;28;20260;-90
2021/04/11 07:54:38;;;;;;;2.80;2.22;;;17.50;30.00;;;;;;5018835;28;20223;-87
2021/04/11 07:57:19;;;;;;;2.20;2.00;;;18.20;30.60;;;;;;5033897;28;20212;-87
2021/04/11 08:00:08;;;;;;;2.22;1.55;;;18.60;27.80;;;;;;5035606;28;20244;-88
2021/04/11 08:03:13;;;;;;;2.60;2.13;;;18.80;27.90;;;;;;5031179;28;20209;-88
2021/04/11 08:06:03;;;;;;;2.00;1.80;;;19.50;26.00;;;;;;5029170;28;20225;-87
2021/04/11 08:09:02;;;;;;;2.20;1.80;;;19.90;25.20;;;;;;5044168;28;20214;-87
2021/04/11 08:12:09;;;;;;;2.97;1.73;;;20.10;24.80;;;;;;5045087;28;20225;-85
2021/04/11 08:24:32;;;;;;;2.13;1.63;;;19.50;24.40;;;;;;5044273;28;20205;-84
2021/04/11 08:27:32;;;;;;;1.60;1.45;;;19.00;25.10;;;;;;5046209;28;20635;-84
2021/04/11 08:30:33;;;;;;;1.92;1.55;;;19.10;26.10;;;;;;5041615;28;20221;-85
2021/04/11 08:33:39;;;;;;;2.20;1.30;;;18.80;24.50;;;;;;5032945;28;20232;-85
2021/04/11 08:36:24;;;;;;;1.50;1.38;;;19.10;24.60;;;;;;5025165;28;20302;-92
2021/04/11 08:39:38;;;;;;;3.10;1.58;;;19.20;25.90;;;;;;5042453;28;20279;-87
2021/04/11 08:42:16;;;;;;;2.08;1.70;;;18.50;24.90;;;;;;5005035;28;20202;-92
2021/04/11 08:45:06;;;;;;;2.45;1.63;;;17.80;27.20;;;;;;5036769;28;20231;-87
2021/04/11 08:47:45;;;;;;;2.10;1.52;;;18.00;27.30;;;;;;5029721;28;20226;-90
2021/04/11 08:50:17;;;;;;;2.25;1.80;;;18.30;28.60;;;;;;5032792;28;20201;-87
2021/04/11 08:52:47;;;;;;;4.03;1.42;;;18.50;26.90;;;;;;5041289;28;20238;-89
2021/04/11 08:59:16;;;;;;;1.63;1.27;;;19.60;27.10;;;;;;5048803;28;20225;-86
2021/04/11 09:02:05;;;;;;;4.05;1.45;;;20.10;25.60;;;;;;5039234;28;20203;-86
2021/04/11 09:04:38;;;;;;;3.25;1.70;;;20.50;23.90;;;;;;5035758;28;20352;-87
2021/04/11 09:07:19;;;;;;;1.92;1.70;;;21.60;22.50;;;;;;5035537;28;20195;-87
2021/04/11 09:09:55;;;;;;;2.88;2.10;;;23.20;20.20;;;;;;5040761;28;20324;-84
2021/04/11 09:12:36;;;;;;;2.22;1.80;;;24.30;19.40;;;;;;5042991;28;20218;-85
2021/04/11 09:15:11;;;;;;;1.85;1.45;;;24.80;19.10;;;;;;5023283;28;20653;-86
2021/04/11 09:18:12;;;;;;;1.80;1.70;;;26.20;16.40;;;;;;5027939;28;20197;-85
2021/04/11 09:20:53;;;;;;;3.05;1.60;;;26.90;15.10;;;;;;5023776;28;20216;-83
2021/04/11 09:24:09;;;;;;;2.83;2.10;;;26.80;16.10;;;;;;5026476;28;20631;-86
2021/04/11 09:26:51;;;;;;;2.17;1.83;;;25.20;16.50;;;;;;5010049;28;20194;-83
2021/04/11 09:29:35;;;;;;;3.95;1.83;;;26.20;17.30;;;;;;5024774;28;20265;-85
2021/04/11 09:32:27;;;;;;;2.53;2.05;;;26.60;15.80;;;;;;5025886;28;20203;-82
2021/04/11 09:35:23;;;;;;;3.30;2.05;;;25.60;15.50;;;;;;5024798;28;20225;-84
2021/04/11 09:38:11;;;;;;;1.70;1.58;;;24.60;19.20;;;;;;5040414;28;20304;-83
2021/04/11 09:40:49;;;;;;;2.08;1.48;;;25.50;16.50;;;;;;5030888;28;20202;-83
2021/04/11 09:43:36;;;;;;;4.30;1.52;;;25.60;16.40;;;;;;5032571;28;20703;-83
2021/04/11 09:46:18;;;;;;;1.63;1.45;;;26.30;14.80;;;;;;5044138;28;20186;-84
2021/04/11 09:49:02;;;;;;;1.77;1.58;;;25.70;17.10;;;;;;5042067;28;20279;-84
2021/04/11 09:52:05;;;;;;;2.67;1.50;;;26.50;14.90;;;;;;5045432;28;20706;-86
2021/04/11 09:54:43;;;;;;;3.45;1.60;;;26.80;15.00;;;;;;5031989;28;20766;-89
2021/04/11 10:00:30;;;;;;;2.13;1.60;;;28.30;15.20;;;;;;5031440;28;20602;-88
2021/04/11 10:03:20;;;;;;;3.67;2.00;;;27.40;15.30;;;;;;5034029;28;20294;-88
2021/04/11 10:06:00;;;;;;;14.95;7.07;;;28.30;15.80;;;;;;5029506;28;20638;-91
2021/04/11 10:12:20;;;;;;;3.78;1.92;;;28.20;14.40;;;;;;5030436;28;20189;-87
2021/04/11 10:15:00;;;;;;;13.50;9.02;;;28.60;14.30;;;;;;5017902;28;20210;-90
2021/04/11 10:17:47;;;;;;;2.10;1.90;;;29.90;14.20;;;;;;5038104;28;20572;-89
2021/04/11 10:23:48;;;;;;;1.90;1.77;;;29.70;11.60;;;;;;5033160;28;20217;-88
2021/04/11 10:26:20;;;;;;;1.77;1.67;;;29.30;12.40;;;;;;5034581;28;20620;-88
2021/04/11 10:28:56;;;;;;;6.25;4.57;;;29.20;14.10;;;;;;5033152;28;20230;-88
2021/04/11 10:31:32;;;;;;;9.90;5.95;;;29.20;13.80;;;;;;5034026;28;20574;-89
2021/04/11 10:34:08;;;;;;;1.58;1.45;;;29.70;14.00;;;;;;5018616;28;20225;-89
2021/04/11 10:36:40;;;;;;;1.65;1.50;;;30.40;12.20;;;;;;5016331;28;20668;-88
2021/04/11 10:39:13;;;;;;;1.52;1.45;;;29.30;13.70;;;;;;5015688;28;20523;-88
2021/04/11 10:41:51;;;;;;;3.63;2.35;;;28.20;13.70;;;;;;5016960;28;20195;-86
2021/04/11 10:45:06;;;;;;;3.53;3.13;;;27.40;15.30;;;;;;5001182;28;20222;-84
2021/04/11 10:47:57;;;;;;;1.77;1.55;;;27.60;15.40;;;;;;4982134;28;20195;-87
2021/04/11 10:50:29;;;;;;;1.98;1.70;;;26.50;14.90;;;;;;5017460;28;20191;-89
2021/04/11 10:53:15;;;;;;;4.28;1.80;;;25.10;17.60;;;;;;5031440;28;20608;-87
2021/04/11 10:56:01;;;;;;;2.72;2.30;;;25.10;18.40;;;;;;5023241;28;20197;-87
2021/04/11 11:02:05;;;;;;;3.97;2.20;;;25.30;17.20;;;;;;5025740;28;20201;-87
2021/04/11 11:08:12;;;;;;;4.10;2.03;;;26.90;15.10;;;;;;5011929;28;20234;-87
2021/04/11 11:10:52;;;;;;;4.03;2.10;;;24.50;18.00;;;;;;5029519;28;20198;-88
2021/04/11 11:13:54;;;;;;;1.77;1.52;;;24.60;18.20;;;;;;5014384;28;20565;-89
2021/04/11 11:16:33;;;;;;;2.50;1.08;;;24.60;17.40;;;;;;4995247;28;20657;-89
2021/04/11 11:19:11;;;;;;;2.42;1.30;;;24.30;17.90;;;;;;5025485;28;20677;-89
2021/04/11 11:22:01;;;;;;;2.40;1.92;;;24.20;18.80;;;;;;5029517;28;20198;-89
2021/04/11 11:25:03;;;;;;;3.13;1.13;;;24.10;19.70;;;;;;5023608;28;20219;-90
2021/04/11 11:27:55;;;;;;;2.25;2.03;;;24.00;19.10;;;;;;5016488;28;20207;-89
2021/04/11 11:30:31;;;;;;;5.97;2.80;;;24.00;19.50;;;;;;5023875;28;20250;-88
2021/04/11 11:33:10;;;;;;;3.03;1.50;;;24.00;18.90;;;;;;5028238;28;20244;-89
2021/04/11 11:35:53;;;;;;;3.88;2.53;;;24.10;19.50;;;;;;5021899;28;20207;-88
2021/04/11 11:38:25;;;;;;;1.92;1.73;;;23.60;19.00;;;;;;5021479;28;20678;-89
2021/04/11 11:41:07;;;;;;;3.30;1.90;;;23.30;19.50;;;;;;5024003;28;20195;-89
2021/04/11 11:43:38;;;;;;;3.72;2.50;;;22.90;19.30;;;;;;5021141;28;20316;-89
2021/04/11 11:46:12;;;;;;;1.65;0.95;;;22.30;21.90;;;;;;5037762;28;20243;-89
2021/04/11 11:48:56;;;;;;;5.43;3.80;;;21.90;20.60;;;;;;5022965;28;20741;-89
2021/04/11 11:51:47;;;;;;;1.20;1.10;;;22.00;21.90;;;;;;5029337;28;20296;-89
2021/04/11 11:54:22;;;;;;;11.05;4.95;;;21.60;20.70;;;;;;5025937;28;20226;-86
2021/04/11 11:57:01;;;;;;;5.07;2.75;;;21.30;21.40;;;;;;5029242;28;20194;-87
2021/04/11 11:59:32;;;;;;;17.75;8.65;;;21.30;23.20;;;;;;5030152;28;20222;-89
2021/04/11 12:02:08;;;;;;;2.47;1.23;;;21.60;23.90;;;;;;5024838;28;20221;-88
2021/04/11 12:08:32;;;;;;;1.92;1.20;;;22.10;20.40;;;;;;5023657;28;20616;-88
2021/04/11 12:11:02;;;;;;;1.20;0.68;;;22.10;20.30;;;;;;5035037;28;20195;-85
2021/04/11 12:13:34;;;;;;;2.95;1.95;;;22.00;19.90;;;;;;5022758;28;20245;-86
2021/04/11 12:16:06;;;;;;;7.00;3.47;;;22.50;20.90;;;;;;5044221;28;20275;-85
2021/04/11 12:18:41;;;;;;;1.60;1.33;;;22.90;22.70;;;;;;5039099;28;20232;-85
2021/04/11 12:21:14;;;;;;;1.73;1.08;;;23.00;20.00;;;;;;5049534;28;20189;-85
2021/04/11 12:23:48;;;;;;;3.97;1.48;;;22.80;20.10;;;;;;5037441;28;20225;-84
2021/04/11 12:26:18;;;;;;;5.68;2.92;;;22.70;21.00;;;;;;5044375;28;20212;-87
2021/04/11 12:28:46;;;;;;;1.10;1.00;;;22.30;22.60;;;;;;5046658;28;20299;-86
2021/04/11 12:34:47;;;;;;;2.25;1.40;;;21.70;21.70;;;;;;5045103;28;20272;-88
2021/04/11 12:37:23;;;;;;;1.20;0.90;;;21.60;21.60;;;;;;5048643;28;20273;-87
2021/04/11 12:40:00;;;;;;;1.25;0.95;;;21.30;21.40;;;;;;5048872;28;20661;-87
2021/04/11 12:42:35;;;;;;;1.00;0.93;;;21.20;23.40;;;;;;5049174;28;20194;-87
2021/04/11 12:48:31;;;;;;;2.75;1.15;;;21.20;20.90;;;;;;5044446;28;20228;-88
2021/04/11 12:51:04;;;;;;;4.13;1.00;;;21.30;23.10;;;;;;5038220;28;20720;-89
2021/04/11 12:57:01;;;;;;;0.95;0.85;;;20.50;23.40;;;;;;5043330;28;20309;-88
2021/04/11 12:59:35;;;;;;;1.42;0.95;;;20.20;23.60;;;;;;5016177;28;20229;-88
2021/04/11 13:02:11;;;;;;;3.47;1.20;;;20.00;24.00;;;;;;5019877;28;20557;-88
2021/04/11 13:04:40;;;;;;;2.20;1.73;;;19.80;25.30;;;;;;5041291;28;20222;-88
2021/04/11 13:07:14;;;;;;;1.65;0.80;;;19.60;25.40;;;;;;5021533;28;20648;-90
2021/04/11 13:13:16;;;;;;;2.58;1.70;;;19.30;30.70;;;;;;5030506;28;20774;-89
2021/04/11 13:15:50;;;;;;;2.85;2.05;;;19.40;29.30;;;;;;5021516;28;20234;-89
2021/04/11 13:18:24;;;;;;;1.85;1.75;;;19.50;30.90;;;;;;5034857;28;20220;-90
2021/04/11 13:21:06;;;;;;;1.45;1.10;;;19.80;28.90;;;;;;5036498;28;20209;-89
2021/04/11 13:23:35;;;;;;;3.00;1.33;;;20.10;29.10;;;;;;5034141;28;20222;-89
2021/04/11 13:26:10;;;;;;;6.93;1.10;;;20.40;28.50;;;;;;5038201;28;20202;-89
2021/04/11 13:28:45;;;;;;;1.38;1.27;;;20.30;26.00;;;;;;5036442;28;20217;-89
2021/04/11 13:31:15;;;;;;;2.42;1.67;;;20.30;24.80;;;;;;5010627;28;20195;-92
2021/04/11 13:33:49;;;;;;;3.28;1.58;;;20.40;24.60;;;;;;5027084;28;22327;-90
2021/04/11 13:36:32;;;;;;;2.88;1.50;;;20.60;25.10;;;;;;5033569;28;20294;-90
2021/04/11 13:39:06;;;;;;;2.83;1.30;;;20.70;24.10;;;;;;5022023;28;20231;-89
2021/04/11 13:41:59;;;;;;;1.67;1.23;;;20.70;23.80;;;;;;5035905;28;20198;-88
2021/04/11 13:44:40;;;;;;;4.20;0.98;;;20.60;25.00;;;;;;5042713;28;20222;-88
2021/04/11 13:47:15;;;;;;;2.88;1.40;;;20.40;24.20;;;;;;5034401;28;20278;-87
2021/04/11 13:49:48;;;;;;;4.47;1.40;;;20.40;24.10;;;;;;5040934;28;20244;-85
2021/04/11 13:52:19;;;;;;;5.68;1.20;;;20.40;23.50;;;;;;5033405;28;20222;-88
2021/04/11 13:54:55;;;;;;;3.35;1.05;;;20.30;23.50;;;;;;5028997;28;20627;-88
2021/04/11 14:01:01;;;;;;;3.30;1.40;;;20.40;23.50;;;;;;5033324;28;20257;-88
2021/04/11 14:03:33;;;;;;;3.95;1.65;;;20.60;25.00;;;;;;5012757;28;20318;-89
2021/04/11 14:06:04;;;;;;;1.52;1.42;;;21.00;24.50;;;;;;5037679;28;20195;-88
2021/04/11 14:08:39;;;;;;;2.47;1.48;;;21.30;24.20;;;;;;5037521;28;20275;-88
2021/04/11 14:11:12;;;;;;;4.22;1.75;;;21.40;23.80;;;;;;5034318;28;20193;-89
2021/04/11 14:13:42;;;;;;;4.93;1.95;;;21.40;23.60;;;;;;5035165;28;20225;-88
2021/04/11 14:16:15;;;;;;;1.98;1.05;;;21.50;23.80;;;;;;5030896;28;20290;-87
2021/04/11 14:18:46;;;;;;;1.98;1.40;;;21.60;24.10;;;;;;5035096;28;20632;-90
2021/04/11 14:21:17;;;;;;;3.10;1.48;;;21.40;24.40;;;;;;5008758;28;20286;-88
2021/04/11 14:24:00;;;;;;;1.33;1.00;;;21.20;24.30;;;;;;5028909;28;20234;-89
2021/04/11 14:26:41;;;;;;;1.98;1.60;;;21.00;24.80;;;;;;5010277;28;20245;-89
2021/04/11 14:29:13;;;;;;;3.05;1.20;;;20.80;24.90;;;;;;5035718;28;20571;-86
2021/04/11 14:31:46;;;;;;;1.80;1.20;;;20.50;25.50;;;;;;5022763;28;20257;-86
2021/04/11 14:34:56;;;;;;;3.00;1.15;;;20.40;25.70;;;;;;5023259;28;20237;-87
2021/04/11 14:37:28;;;;;;;1.85;1.20;;;20.10;25.90;;;;;;5009983;28;20270;-89
2021/04/11 14:39:58;;;;;;;1.20;0.88;;;20.00;26.50;;;;;;5024571;28;20741;-86
2021/04/11 14:42:29;;;;;;;3.13;1.52;;;19.80;26.80;;;;;;5010853;28;20199;-85
2021/04/11 14:45:00;;;;;;;1.40;1.25;;;19.70;27.40;;;;;;5019159;28;20199;-86
2021/04/11 14:50:51;;;;;;;1.20;1.13;;;19.70;27.70;;;;;;5031687;28;20158;-85
2021/04/11 14:53:25;;;;;;;1.40;1.30;;;19.60;28.30;;;;;;5014583;28;20240;-86
2021/04/11 14:59:22;;;;;;;3.63;1.85;;;19.00;28.40;;;;;;5010772;28;20250;-85
2021/04/11 15:05:18;;;;;;;1.10;1.00;;;19.10;28.50;;;;;;5027893;28;20276;-88